Time;durP1;ratioP1;P1;durP2;ratioP2;P2;SDS_P1;SDS_P2;PMS_P1;PMS_P2;Temp;Humidity;BMP_temperature;BMP_pressure;BME280_temperature;BME280_humidity;BME280_pressure;Samples;Min_cycle;Max_cycle;Signal;HPM_P1;HPM_P2
2022/07/23 00:01:34;;;;;;;21.42;13.40;;;20.70;57.60;;;;;;5000309;28;20054;-48
2022/07/23 00:04:01;;;;;;;17.92;13.93;;;20.70;57.80;;;;;;4999113;28;20057;-47
2022/07/23 00:06:28;;;;;;;23.58;13.77;;;20.70;57.90;;;;;;4996988;28;20053;-46
2022/07/23 00:08:57;;;;;;;19.02;12.50;;;20.60;58.00;;;;;;4998826;28;20061;-47
2022/07/23 00:11:25;;;;;;;19.83;13.75;;;20.60;58.20;;;;;;4997995;28;20057;-47
2022/07/23 00:13:54;;;;;;;23.05;14.13;;;20.50;58.20;;;;;;5003006;28;20057;-46
2022/07/23 00:16:22;;;;;;;18.98;13.10;;;20.60;58.40;;;;;;5000332;28;20054;-48
2022/07/23 00:18:49;;;;;;;21.75;13.98;;;20.50;58.40;;;;;;5006017;28;20050;-47
2022/07/23 00:21:16;;;;;;;21.30;14.27;;;20.50;58.60;;;;;;5005071;28;20062;-47
2022/07/23 00:23:44;;;;;;;20.73;14.55;;;20.50;58.60;;;;;;5002656;28;20155;-47
2022/07/23 00:26:13;;;;;;;19.67;13.88;;;20.50;58.60;;;;;;5000332;28;20062;-46
2022/07/23 00:28:40;;;;;;;20.45;13.68;;;20.50;58.60;;;;;;5003353;28;20054;-45
2022/07/23 00:31:08;;;;;;;20.77;13.25;;;20.50;58.60;;;;;;5003995;28;20073;-46
2022/07/23 00:33:35;;;;;;;17.25;12.77;;;20.50;58.70;;;;;;5004627;28;20498;-45
2022/07/23 00:36:03;;;;;;;17.90;13.00;;;20.50;58.70;;;;;;4998787;28;20486;-46
2022/07/23 00:38:31;;;;;;;17.60;12.27;;;20.50;58.70;;;;;;5002931;28;20409;-45
2022/07/23 00:40:59;;;;;;;18.65;12.27;;;20.50;58.60;;;;;;5003038;28;20062;-45
2022/07/23 00:43:28;;;;;;;16.77;12.57;;;20.50;58.60;;;;;;5004124;28;20513;-48
2022/07/23 00:45:55;;;;;;;16.27;12.10;;;20.60;58.50;;;;;;4999475;28;20064;-45
2022/07/23 00:48:22;;;;;;;18.48;13.48;;;20.50;58.40;;;;;;5005445;28;20058;-47
2022/07/23 00:50:50;;;;;;;17.73;13.45;;;20.60;58.40;;;;;;5002008;28;20050;-45
2022/07/23 00:53:18;;;;;;;18.88;13.23;;;20.60;58.30;;;;;;5003036;28;20528;-47
2022/07/23 00:55:45;;;;;;;19.25;13.35;;;20.60;58.20;;;;;;5000859;28;20057;-47
2022/07/23 00:58:13;;;;;;;19.77;14.00;;;20.60;58.30;;;;;;5003245;28;20061;-45
2022/07/23 01:00:42;;;;;;;27.75;15.35;;;20.60;58.40;;;;;;4999520;28;20482;-45
2022/07/23 01:03:09;;;;;;;18.52;13.25;;;20.60;58.40;;;;;;5004712;28;20063;-48
2022/07/23 01:05:38;;;;;;;18.17;13.57;;;20.60;58.40;;;;;;5003144;28;20524;-47
2022/07/23 01:08:07;;;;;;;18.45;12.27;;;20.60;58.50;;;;;;5002056;28;20125;-47
2022/07/23 01:10:34;;;;;;;16.17;11.85;;;20.60;58.50;;;;;;5000562;28;20502;-45
2022/07/23 01:13:03;;;;;;;17.25;11.95;;;20.60;58.60;;;;;;5003424;28;20050;-45
2022/07/23 01:15:31;;;;;;;21.55;14.48;;;20.60;58.80;;;;;;4999861;28;20056;-47
2022/07/23 01:18:00;;;;;;;17.52;12.32;;;20.60;59.10;;;;;;5001801;28;20062;-49
2022/07/23 01:20:28;;;;;;;20.30;14.40;;;20.70;58.90;;;;;;5002624;28;20080;-48
2022/07/23 01:22:56;;;;;;;19.27;14.32;;;20.70;58.50;;;;;;5003592;28;20506;-45
2022/07/23 01:25:25;;;;;;;18.65;14.43;;;20.70;58.30;;;;;;5001008;28;20046;-45
2022/07/23 01:27:53;;;;;;;17.85;13.70;;;20.70;58.30;;;;;;4997932;28;20065;-45
2022/07/23 01:30:21;;;;;;;20.60;15.15;;;20.60;58.30;;;;;;5002473;28;20347;-48
2022/07/23 01:32:48;;;;;;;22.95;15.10;;;20.60;58.30;;;;;;5003193;28;20086;-47
2022/07/23 01:35:16;;;;;;;22.65;14.80;;;20.60;58.20;;;;;;5002008;28;20050;-48
2022/07/23 01:37:43;;;;;;;24.95;15.23;;;20.60;58.20;;;;;;4998538;28;20064;-45
2022/07/23 01:40:12;;;;;;;23.17;15.55;;;20.50;58.10;;;;;;4993726;28;20057;-46
2022/07/23 01:42:40;;;;;;;21.25;15.77;;;20.50;58.10;;;;;;5001089;28;20058;-46
2022/07/23 01:45:08;;;;;;;21.30;15.50;;;20.50;58.20;;;;;;4998152;28;20057;-46
2022/07/23 01:47:35;;;;;;;22.83;16.10;;;20.50;58.20;;;;;;5000159;28;20054;-47
2022/07/23 01:50:03;;;;;;;23.60;15.50;;;20.40;58.30;;;;;;5002709;28;20049;-46
2022/07/23 01:52:30;;;;;;;18.95;13.50;;;20.40;58.50;;;;;;5000167;28;20494;-45
2022/07/23 01:54:58;;;;;;;20.75;15.23;;;20.40;58.60;;;;;;5002834;28;20060;-47
2022/07/23 01:57:27;;;;;;;25.90;16.05;;;20.30;58.50;;;;;;4999597;28;20053;-45
2022/07/23 01:59:54;;;;;;;20.65;14.15;;;20.40;58.70;;;;;;5001677;28;20081;-45
2022/07/23 02:02:21;;;;;;;16.95;13.00;;;20.40;58.60;;;;;;4999780;28;20494;-49
2022/07/23 02:04:49;;;;;;;23.77;15.55;;;20.40;58.70;;;;;;4998256;28;20054;-49
2022/07/23 02:07:16;;;;;;;20.95;15.23;;;20.40;58.50;;;;;;4998805;28;20049;-48
2022/07/23 02:09:44;;;;;;;22.00;16.23;;;20.40;58.40;;;;;;4998888;28;20418;-45
2022/07/23 02:12:11;;;;;;;20.63;14.55;;;20.40;58.20;;;;;;4997538;28;20054;-48
2022/07/23 02:14:40;;;;;;;21.17;14.73;;;20.40;58.30;;;;;;5000543;28;20054;-46
2022/07/23 02:17:07;;;;;;;20.27;14.30;;;20.50;58.30;;;;;;4998911;28;20053;-46
2022/07/23 02:19:35;;;;;;;25.23;16.85;;;20.50;58.40;;;;;;5001605;28;20521;-45
2022/07/23 02:22:02;;;;;;;24.25;17.63;;;20.50;58.40;;;;;;5001531;28;20054;-46
2022/07/23 02:24:30;;;;;;;22.02;16.73;;;20.50;58.10;;;;;;5002086;28;20498;-45
2022/07/23 02:26:57;;;;;;;23.98;16.27;;;20.50;58.00;;;;;;5000175;28;20061;-47
2022/07/23 02:29:24;;;;;;;26.30;16.45;;;20.50;58.20;;;;;;5000912;28;20486;-44
2022/07/23 02:31:53;;;;;;;24.05;17.83;;;20.40;58.30;;;;;;5000968;28;20510;-46
2022/07/23 02:34:21;;;;;;;26.92;19.15;;;20.50;58.40;;;;;;5002609;28;20065;-53
2022/07/23 02:36:48;;;;;;;25.33;17.83;;;20.40;58.30;;;;;;4998339;28;20053;-47
2022/07/23 02:39:15;;;;;;;24.08;17.17;;;20.40;58.20;;;;;;4995501;28;20050;-47
2022/07/23 02:41:43;;;;;;;23.10;15.30;;;20.30;58.20;;;;;;4996115;28;20514;-45
2022/07/23 02:44:10;;;;;;;25.65;17.27;;;20.40;58.30;;;;;;5001997;28;20061;-46
2022/07/23 02:46:40;;;;;;;27.60;17.85;;;20.30;58.30;;;;;;4994955;28;20057;-45
2022/07/23 02:49:09;;;;;;;24.70;17.10;;;20.30;58.30;;;;;;5002965;28;20413;-45
2022/07/23 02:51:37;;;;;;;27.30;17.52;;;20.30;58.30;;;;;;4999932;28;20068;-48
2022/07/23 02:54:04;;;;;;;27.15;17.95;;;20.30;58.30;;;;;;5000400;28;20068;-46
2022/07/23 02:56:33;;;;;;;24.90;17.52;;;20.30;58.30;;;;;;4997203;28;20053;-48
2022/07/23 02:59:00;;;;;;;26.77;17.33;;;20.30;58.30;;;;;;5000813;28;20061;-47
2022/07/23 03:01:27;;;;;;;24.55;16.92;;;20.20;58.20;;;;;;5001937;28;20056;-48
2022/07/23 03:03:55;;;;;;;25.92;16.80;;;20.20;58.30;;;;;;5002350;28;20065;-46
2022/07/23 03:06:24;;;;;;;23.15;16.55;;;20.20;58.30;;;;;;4998600;28;20060;-45
2022/07/23 03:08:51;;;;;;;19.33;14.25;;;20.20;58.30;;;;;;4998299;28;20061;-45
2022/07/23 03:11:19;;;;;;;23.77;15.63;;;20.10;58.40;;;;;;5001913;28;20045;-48
2022/07/23 03:13:46;;;;;;;26.67;17.02;;;20.10;58.40;;;;;;4997935;28;20049;-48
2022/07/23 03:16:14;;;;;;;25.60;17.83;;;20.10;58.50;;;;;;4996989;28;20050;-45
2022/07/23 03:18:41;;;;;;;28.95;18.17;;;20.10;58.50;;;;;;4999483;28;20049;-47
2022/07/23 03:21:09;;;;;;;24.70;16.83;;;20.10;58.60;;;;;;5001060;28;20046;-49
2022/07/23 03:23:44;;;;;;;26.77;18.25;;;20.10;58.70;;;;;;5002488;28;20053;-48
2022/07/23 03:26:11;;;;;;;24.92;18.40;;;20.00;58.80;;;;;;4999001;28;20050;-47
2022/07/23 03:28:39;;;;;;;26.95;18.77;;;20.00;58.80;;;;;;4999149;28;20497;-46
2022/07/23 03:31:06;;;;;;;32.92;20.00;;;20.00;58.80;;;;;;5000670;28;20126;-45
2022/07/23 03:33:33;;;;;;;29.25;18.50;;;20.00;58.80;;;;;;5000382;28;20406;-49
2022/07/23 03:36:01;;;;;;;25.90;18.42;;;19.90;59.00;;;;;;4999653;28;20053;-48
2022/07/23 03:38:28;;;;;;;32.60;19.52;;;20.00;59.00;;;;;;5000911;28;20064;-48
2022/07/23 03:40:57;;;;;;;27.63;19.27;;;19.90;59.10;;;;;;4998704;28;20046;-45
2022/07/23 03:43:25;;;;;;;26.80;17.02;;;19.90;59.30;;;;;;5000494;28;20061;-46
2022/07/23 03:45:53;;;;;;;29.35;18.90;;;19.90;59.30;;;;;;4996261;28;20065;-46
2022/07/23 03:48:20;;;;;;;25.80;17.15;;;19.80;59.40;;;;;;5003540;28;20058;-49
2022/07/23 03:50:48;;;;;;;24.45;17.27;;;19.80;59.50;;;;;;5005436;28;20058;-46
2022/07/23 03:53:15;;;;;;;27.65;18.15;;;19.80;59.50;;;;;;5006288;28;20505;-45
2022/07/23 03:55:42;;;;;;;23.25;16.48;;;19.80;59.50;;;;;;5005010;28;20050;-48
2022/07/23 03:58:11;;;;;;;23.30;17.00;;;19.80;59.50;;;;;;5004872;28;20520;-45
2022/07/23 04:00:39;;;;;;;25.77;16.92;;;19.80;59.50;;;;;;5004182;28;20050;-46
2022/07/23 04:03:06;;;;;;;21.45;16.30;;;19.90;59.50;;;;;;4994863;28;20504;-46
2022/07/23 04:05:34;;;;;;;24.83;17.17;;;19.90;59.50;;;;;;5011343;28;20501;-46
2022/07/23 04:08:03;;;;;;;25.65;16.77;;;19.90;59.50;;;;;;4998902;28;20275;-45
2022/07/23 04:10:31;;;;;;;27.58;17.77;;;19.90;59.40;;;;;;4999254;28;20057;-47
2022/07/23 04:12:58;;;;;;;47.03;28.63;;;19.90;59.40;;;;;;4998624;28;20054;-49
2022/07/23 04:15:27;;;;;;;30.90;20.88;;;19.90;59.40;;;;;;4997134;28;20506;-47
2022/07/23 04:17:54;;;;;;;30.38;20.00;;;19.90;59.40;;;;;;4991433;28;20510;-48
2022/07/23 04:20:22;;;;;;;29.02;19.08;;;20.00;59.50;;;;;;5001801;28;20038;-45
2022/07/23 04:22:51;;;;;;;27.05;19.33;;;20.00;59.50;;;;;;5003441;28;20053;-47
2022/07/23 04:25:20;;;;;;;22.67;17.50;;;19.90;59.50;;;;;;5001976;28;20050;-49
2022/07/23 04:27:48;;;;;;;25.33;18.33;;;19.90;59.50;;;;;;4996667;28;20057;-48
2022/07/23 04:30:16;;;;;;;31.42;20.88;;;20.00;59.70;;;;;;5001502;28;20050;-46
2022/07/23 04:32:47;;;;;;;173.70;85.47;;;20.00;59.90;;;;;;5001926;28;20064;-45
2022/07/23 04:35:15;;;;;;;45.88;29.10;;;20.00;60.00;;;;;;5003839;28;20425;-46
2022/07/23 04:37:44;;;;;;;31.58;22.00;;;20.00;60.00;;;;;;4998778;28;20061;-45
2022/07/23 04:40:13;;;;;;;30.95;20.90;;;20.00;60.00;;;;;;5004258;28;20050;-46
2022/07/23 04:42:41;;;;;;;32.80;20.70;;;20.00;60.10;;;;;;5000655;28;20505;-51
2022/07/23 04:45:09;;;;;;;27.48;18.15;;;20.00;60.20;;;;;;5001396;28;20065;-47
2022/07/23 04:47:37;;;;;;;31.38;20.88;;;20.00;60.10;;;;;;4994577;28;20050;-45
2022/07/23 04:50:06;;;;;;;27.25;19.55;;;20.00;60.30;;;;;;5001180;28;20061;-45
2022/07/23 04:52:34;;;;;;;30.83;21.45;;;20.00;60.30;;;;;;5002871;28;20060;-46
2022/07/23 04:55:01;;;;;;;27.58;19.17;;;20.00;60.20;;;;;;5003738;28;20057;-47
2022/07/23 04:57:29;;;;;;;28.00;19.60;;;20.10;60.40;;;;;;4996860;28;20049;-46
2022/07/23 04:59:56;;;;;;;26.23;18.95;;;20.10;60.50;;;;;;5001174;28;20064;-45
2022/07/23 05:02:23;;;;;;;34.55;20.70;;;20.10;60.50;;;;;;5000856;28;20052;-46
2022/07/23 05:04:51;;;;;;;28.38;20.20;;;20.10;60.60;;;;;;5002140;28;20093;-50
2022/07/23 05:07:20;;;;;;;30.55;21.23;;;20.10;60.70;;;;;;4998234;28;20053;-47
2022/07/23 05:09:47;;;;;;;31.30;20.65;;;20.10;60.70;;;;;;5003173;28;20060;-46
2022/07/23 05:12:15;;;;;;;32.58;21.48;;;20.10;60.70;;;;;;5000212;28;20397;-48
2022/07/23 05:14:42;;;;;;;25.63;17.45;;;20.00;60.80;;;;;;4997415;28;20062;-45
2022/07/23 05:17:10;;;;;;;29.17;20.13;;;20.00;60.90;;;;;;4997393;28;20053;-48
2022/07/23 05:19:37;;;;;;;25.83;18.52;;;20.00;61.10;;;;;;4997775;28;20053;-46
2022/07/23 05:22:04;;;;;;;33.65;21.60;;;20.00;62.10;;;;;;5000408;28;20494;-45
2022/07/23 05:24:33;;;;;;;28.90;19.02;;;20.00;62.00;;;;;;5001302;28;22132;-46
2022/07/23 05:27:01;;;;;;;31.10;20.85;;;20.00;62.40;;;;;;5002248;28;20065;-46
2022/07/23 05:29:28;;;;;;;34.13;19.85;;;20.00;62.90;;;;;;4999013;28;20054;-47
2022/07/23 05:31:56;;;;;;;35.03;21.33;;;19.90;63.30;;;;;;4998933;28;20054;-48
2022/07/23 05:34:23;;;;;;;35.15;22.10;;;19.90;63.70;;;;;;5000934;28;20054;-47
2022/07/23 05:36:50;;;;;;;33.40;22.42;;;19.90;64.30;;;;;;4998112;28;20068;-46
2022/07/23 05:39:18;;;;;;;34.42;20.90;;;19.90;64.50;;;;;;5003344;28;20054;-48
2022/07/23 05:41:47;;;;;;;32.58;19.27;;;19.80;64.60;;;;;;5000045;28;20046;-46
2022/07/23 05:44:14;;;;;;;34.05;21.92;;;19.80;64.60;;;;;;5001495;28;20064;-54
2022/07/23 05:46:42;;;;;;;35.38;22.60;;;19.80;64.90;;;;;;4994615;28;20425;-48
2022/07/23 05:49:09;;;;;;;32.50;21.20;;;19.80;65.00;;;;;;4996717;28;20061;-47
2022/07/23 05:51:37;;;;;;;35.50;22.23;;;19.80;65.00;;;;;;5003506;28;20660;-50
2022/07/23 05:54:04;;;;;;;39.88;24.65;;;19.90;65.40;;;;;;5001505;28;20065;-47
2022/07/23 05:56:32;;;;;;;36.10;23.70;;;19.90;65.60;;;;;;4996608;28;20057;-51
2022/07/23 05:59:00;;;;;;;39.85;24.02;;;19.80;65.30;;;;;;4997859;28;20058;-47
2022/07/23 06:01:28;;;;;;;36.17;22.88;;;19.80;65.50;;;;;;4991886;28;20061;-47
2022/07/23 06:03:55;;;;;;;36.72;23.25;;;19.80;65.80;;;;;;5002355;28;20046;-48
2022/07/23 06:06:23;;;;;;;35.92;22.67;;;19.80;66.00;;;;;;4993515;28;20054;-47
2022/07/23 06:08:50;;;;;;;31.08;20.90;;;19.80;65.90;;;;;;5000422;28;20475;-49
2022/07/23 06:11:18;;;;;;;35.78;21.42;;;19.80;65.90;;;;;;5001746;28;20061;-48
2022/07/23 06:13:45;;;;;;;33.25;21.30;;;19.80;66.10;;;;;;5002806;28;20058;-46
2022/07/23 06:16:14;;;;;;;36.30;21.73;;;19.70;66.00;;;;;;4992273;28;20058;-47
2022/07/23 06:18:41;;;;;;;31.65;20.77;;;19.70;66.20;;;;;;5000785;28;20104;-47
2022/07/23 06:21:09;;;;;;;37.75;21.45;;;19.70;66.30;;;;;;4999081;28;20061;-45
2022/07/23 06:23:36;;;;;;;37.50;23.10;;;19.80;66.80;;;;;;4996911;28;20525;-47
2022/07/23 06:26:03;;;;;;;33.22;19.95;;;19.70;66.60;;;;;;4996917;28;20054;-49
2022/07/23 06:28:31;;;;;;;43.05;21.63;;;19.70;66.60;;;;;;4997054;28;20490;-45
2022/07/23 06:30:58;;;;;;;32.78;18.75;;;19.70;66.70;;;;;;4999869;28;20069;-46
2022/07/23 06:33:27;;;;;;;29.30;19.40;;;19.80;66.50;;;;;;5001016;28;20054;-49
2022/07/23 06:35:55;;;;;;;31.90;19.88;;;19.80;66.30;;;;;;4994711;28;21610;-46
2022/07/23 06:38:22;;;;;;;35.22;19.50;;;19.80;66.00;;;;;;5002314;28;20518;-48
2022/07/23 06:40:49;;;;;;;34.88;19.17;;;19.80;65.80;;;;;;5003818;28;20076;-49
2022/07/23 06:43:17;;;;;;;31.17;19.27;;;19.90;66.00;;;;;;4999490;28;20410;-52
2022/07/23 06:45:47;;;;;;;32.83;19.58;;;19.90;66.00;;;;;;4997684;28;20050;-46
2022/07/23 06:48:14;;;;;;;30.40;19.73;;;19.90;65.80;;;;;;5001709;28;20057;-49
2022/07/23 06:50:44;;;;;;;30.05;17.08;;;19.90;65.90;;;;;;4999362;28;20057;-51
2022/07/23 06:53:12;;;;;;;28.60;18.75;;;20.00;65.80;;;;;;4999515;28;20060;-47
2022/07/23 06:55:39;;;;;;;31.65;18.00;;;20.00;65.40;;;;;;5000022;28;20058;-46
2022/07/23 06:58:09;;;;;;;32.90;19.33;;;20.00;65.30;;;;;;4996950;28;20493;-47
2022/07/23 07:00:36;;;;;;;34.38;21.10;;;20.10;65.40;;;;;;4995300;28;20061;-46
2022/07/23 07:03:04;;;;;;;32.30;18.60;;;20.10;65.50;;;;;;4996127;28;20054;-47
2022/07/23 07:05:31;;;;;;;28.67;18.08;;;20.20;65.90;;;;;;4999351;28;20050;-46
2022/07/23 07:08:00;;;;;;;27.70;16.40;;;20.20;65.90;;;;;;4998983;28;20429;-45
2022/07/23 07:10:28;;;;;;;29.20;18.48;;;20.30;65.90;;;;;;4997194;28;20050;-46
2022/07/23 07:12:55;;;;;;;30.05;17.92;;;20.40;65.80;;;;;;4999848;28;20058;-48
2022/07/23 07:15:23;;;;;;;27.08;16.58;;;20.50;65.40;;;;;;4997360;28;20505;-49
2022/07/23 07:17:50;;;;;;;23.85;16.48;;;20.50;64.40;;;;;;5000484;28;20072;-45
2022/07/23 07:20:18;;;;;;;24.88;16.25;;;20.60;63.90;;;;;;4999095;28;20049;-45
2022/07/23 07:22:45;;;;;;;26.92;16.73;;;20.60;63.80;;;;;;4996487;28;20046;-45
2022/07/23 07:25:14;;;;;;;22.23;15.52;;;20.70;63.80;;;;;;4994696;28;20281;-48
2022/07/23 07:27:43;;;;;;;22.75;14.10;;;20.70;63.60;;;;;;4992482;28;20046;-47
2022/07/23 07:30:12;;;;;;;23.45;14.82;;;20.80;63.60;;;;;;5001131;28;20056;-45
2022/07/23 07:32:39;;;;;;;24.60;14.73;;;20.80;62.70;;;;;;4998329;28;20053;-48
2022/07/23 07:35:08;;;;;;;23.80;14.18;;;20.90;62.10;;;;;;5002261;28;20058;-45
2022/07/23 07:37:35;;;;;;;18.40;11.60;;;20.90;61.70;;;;;;4995871;28;20058;-46
2022/07/23 07:40:04;;;;;;;18.02;11.15;;;21.00;60.10;;;;;;4996834;28;20050;-47
2022/07/23 07:42:33;;;;;;;14.75;8.35;;;21.00;59.10;;;;;;4994523;28;20065;-46
2022/07/23 07:45:00;;;;;;;15.45;9.82;;;21.00;58.80;;;;;;5001599;28;20054;-47
2022/07/23 07:47:28;;;;;;;11.18;7.57;;;21.10;58.70;;;;;;4995481;28;20050;-45
2022/07/23 07:49:56;;;;;;;13.52;6.90;;;21.10;56.10;;;;;;5002637;28;20054;-45
2022/07/23 07:52:23;;;;;;;11.10;6.75;;;21.10;56.70;;;;;;4997210;28;20057;-45
2022/07/23 07:54:50;;;;;;;13.20;8.48;;;21.20;56.90;;;;;;5000461;28;20062;-45
2022/07/23 07:57:18;;;;;;;20.77;9.15;;;21.20;56.70;;;;;;4993597;28;20053;-47
2022/07/23 07:59:47;;;;;;;12.02;8.27;;;21.30;56.70;;;;;;4994903;28;20406;-45
2022/07/23 08:02:15;;;;;;;13.43;9.13;;;21.30;56.60;;;;;;5002577;28;20076;-45
2022/07/23 08:04:43;;;;;;;17.52;8.68;;;21.40;56.90;;;;;;5002918;28;20057;-46
2022/07/23 08:07:10;;;;;;;13.27;8.13;;;21.50;56.90;;;;;;4992737;28;20061;-49
2022/07/23 08:09:37;;;;;;;13.13;7.43;;;21.50;56.50;;;;;;4998898;28;20090;-47
2022/07/23 08:12:05;;;;;;;11.57;6.78;;;21.60;55.40;;;;;;4994742;28;20489;-51
2022/07/23 08:14:32;;;;;;;11.90;7.78;;;21.60;55.10;;;;;;4997818;28;20060;-49
2022/07/23 08:17:01;;;;;;;13.45;6.65;;;21.70;54.30;;;;;;4996897;28;20498;-46
2022/07/23 08:19:29;;;;;;;10.80;7.07;;;21.70;54.00;;;;;;4999640;28;20053;-49
2022/07/23 08:21:56;;;;;;;13.82;7.68;;;21.70;54.00;;;;;;5000573;28;20060;-48
2022/07/23 08:24:24;;;;;;;12.18;6.55;;;21.80;54.20;;;;;;4998120;28;20692;-46
2022/07/23 08:26:51;;;;;;;9.25;6.68;;;21.80;54.20;;;;;;4996990;28;20053;-49
2022/07/23 08:29:18;;;;;;;19.27;7.60;;;21.90;54.20;;;;;;4998669;28;20520;-45
2022/07/23 08:31:46;;;;;;;12.00;6.47;;;22.00;54.70;;;;;;5000209;28;20053;-46
2022/07/23 08:34:15;;;;;;;9.60;6.25;;;22.00;53.40;;;;;;5003502;28;20050;-47
2022/07/23 08:36:42;;;;;;;17.55;7.45;;;22.00;53.40;;;;;;5001619;28;20481;-45
2022/07/23 08:39:10;;;;;;;19.50;6.68;;;22.00;52.80;;;;;;5003963;28;20050;-46
2022/07/23 08:41:41;;;;;;;11.90;7.28;;;22.10;52.20;;;;;;4996477;28;20120;-50
2022/07/23 08:44:09;;;;;;;9.65;6.63;;;22.10;51.30;;;;;;5003062;28;20057;-57
2022/07/23 08:46:39;;;;;;;10.40;6.28;;;22.10;51.80;;;;;;5000081;28;20049;-44
2022/07/23 08:49:07;;;;;;;11.02;5.88;;;22.10;51.90;;;;;;5001547;28;20053;-50
2022/07/23 08:51:36;;;;;;;9.73;6.13;;;22.20;52.30;;;;;;5005883;28;20084;-48
2022/07/23 08:54:05;;;;;;;11.27;5.72;;;22.20;51.60;;;;;;5003706;28;20057;-50
2022/07/23 08:56:32;;;;;;;11.25;5.53;;;22.30;51.90;;;;;;4999763;28;20425;-46
2022/07/23 08:59:00;;;;;;;10.50;6.43;;;22.30;52.00;;;;;;4997408;28;20057;-46
2022/07/23 09:01:28;;;;;;;10.10;6.25;;;22.40;51.00;;;;;;5000823;28;20061;-45
2022/07/23 09:03:55;;;;;;;11.05;6.60;;;22.40;50.80;;;;;;5004097;28;20434;-50
2022/07/23 09:06:22;;;;;;;14.32;8.35;;;22.50;50.50;;;;;;4997757;28;20053;-44
2022/07/23 09:08:51;;;;;;;11.90;7.43;;;22.50;50.60;;;;;;4999276;28;20058;-45
2022/07/23 09:11:19;;;;;;;10.90;7.57;;;22.50;50.60;;;;;;5004954;28;20058;-45
2022/07/23 09:13:49;;;;;;;12.38;6.30;;;22.50;50.50;;;;;;5003477;28;20054;-45
2022/07/23 09:16:19;;;;;;;9.70;5.15;;;22.50;50.80;;;;;;4996686;28;20053;-46
2022/07/23 09:18:49;;;;;;;8.15;5.63;;;22.50;51.20;;;;;;5002242;28;20490;-47
2022/07/23 09:21:22;;;;;;;10.18;5.75;;;22.60;51.30;;;;;;5004404;28;20429;-45
2022/07/23 09:23:55;;;;;;;8.70;5.63;;;22.70;50.60;;;;;;5003297;28;20061;-44
2022/07/23 09:26:34;;;;;;;9.43;6.13;;;22.70;51.30;;;;;;4999934;28;20845;-45
2022/07/23 09:29:05;;;;;;;9.85;6.15;;;22.80;51.50;;;;;;4999599;28;20057;-45
2022/07/23 09:31:42;;;;;;;9.10;6.18;;;22.80;51.50;;;;;;4997875;28;20065;-47
2022/07/23 09:34:13;;;;;;;13.18;6.90;;;22.90;51.20;;;;;;5000526;28;20053;-47
2022/07/23 09:36:41;;;;;;;11.15;6.45;;;23.00;50.70;;;;;;4996571;28;20054;-45
2022/07/23 09:39:11;;;;;;;9.27;5.50;;;23.00;51.50;;;;;;4998434;28;20061;-49
2022/07/23 09:41:42;;;;;;;12.55;6.20;;;23.10;51.70;;;;;;4995367;28;20502;-48
2022/07/23 09:44:12;;;;;;;12.27;5.57;;;23.10;50.80;;;;;;4998565;28;20061;-48
2022/07/23 09:46:43;;;;;;;8.05;4.65;;;23.20;50.00;;;;;;4992718;28;20057;-57
2022/07/23 09:49:21;;;;;;;12.15;5.80;;;23.20;49.80;;;;;;4990479;28;20061;-50
2022/07/23 09:51:54;;;;;;;11.68;6.25;;;23.20;48.60;;;;;;4995274;28;20061;-48
2022/07/23 09:54:30;;;;;;;11.07;5.67;;;23.20;48.20;;;;;;4997579;28;20482;-47
2022/07/23 09:56:58;;;;;;;7.70;5.10;;;23.30;48.30;;;;;;4999730;28;20058;-47
2022/07/23 09:59:28;;;;;;;11.20;5.50;;;23.20;48.40;;;;;;4997530;28;20050;-48
2022/07/23 10:01:57;;;;;;;7.13;4.93;;;23.20;48.20;;;;;;5000576;28;20058;-51
2022/07/23 10:04:25;;;;;;;7.18;5.00;;;23.30;48.20;;;;;;5000509;28;20050;-45
2022/07/23 10:06:54;;;;;;;8.95;4.68;;;23.30;48.90;;;;;;4997920;28;20053;-45
2022/07/23 10:09:29;;;;;;;8.57;5.03;;;23.40;49.30;;;;;;5002521;28;20073;-45
2022/07/23 10:12:03;;;;;;;10.15;5.07;;;23.40;49.00;;;;;;5002467;28;20069;-46
2022/07/23 10:14:32;;;;;;;7.70;4.78;;;23.40;48.60;;;;;;4999864;28;20049;-46
2022/07/23 10:17:00;;;;;;;9.73;4.68;;;23.50;48.40;;;;;;4996825;28;20421;-50
2022/07/23 10:19:28;;;;;;;5.97;4.50;;;23.50;48.00;;;;;;5000713;28;20049;-45
2022/07/23 10:22:00;;;;;;;7.03;3.78;;;23.60;47.50;;;;;;4999367;28;20057;-45
2022/07/23 10:24:45;;;;;;;6.07;3.60;;;23.60;47.90;;;;;;4997724;28;20050;-47
2022/07/23 10:27:32;;;;;;;7.13;3.90;;;23.70;48.50;;;;;;4996391;28;20444;-47
2022/07/23 10:30:05;;;;;;;6.88;4.20;;;23.70;48.10;;;;;;5001237;28;20492;-46
2022/07/23 10:32:44;;;;;;;5.25;3.72;;;23.80;48.70;;;;;;5003037;28;20084;-57
2022/07/23 10:35:23;;;;;;;6.00;3.90;;;23.80;46.50;;;;;;5002981;28;20050;-48
2022/07/23 10:37:54;;;;;;;5.90;3.90;;;23.90;45.80;;;;;;4997667;28;20076;-45
2022/07/23 10:40:24;;;;;;;7.72;4.00;;;23.90;45.50;;;;;;5002925;28;20053;-49
2022/07/23 10:42:54;;;;;;;9.77;3.42;;;24.00;46.10;;;;;;5000322;28;20060;-56
2022/07/23 10:45:26;;;;;;;8.40;4.22;;;24.00;45.50;;;;;;5002298;28;20054;-45
2022/07/23 10:47:54;;;;;;;5.55;3.38;;;24.10;45.70;;;;;;5002509;28;21506;-45
2022/07/23 10:50:23;;;;;;;4.10;3.08;;;24.10;46.30;;;;;;5003295;28;20050;-48
2022/07/23 10:53:19;;;;;;;7.10;3.70;;;24.20;46.70;;;;;;5002435;28;20058;-45
2022/07/23 10:55:51;;;;;;;6.72;4.05;;;24.20;46.60;;;;;;5001075;28;20445;-55
2022/07/23 10:58:20;;;;;;;6.20;4.03;;;24.30;45.50;;;;;;4999982;28;20058;-52
2022/07/23 11:00:49;;;;;;;3.50;2.78;;;24.30;45.10;;;;;;5003123;28;20061;-45
2022/07/23 11:03:36;;;;;;;11.00;3.90;;;24.40;44.90;;;;;;5003260;28;20058;-48
2022/07/23 11:06:04;;;;;;;4.38;2.88;;;24.40;43.80;;;;;;5001289;28;20053;-47
2022/07/23 11:08:32;;;;;;;8.50;4.20;;;24.40;45.10;;;;;;5001145;28;20069;-47
2022/07/23 11:11:13;;;;;;;7.22;4.45;;;24.50;44.00;;;;;;5002565;28;20058;-48
2022/07/23 11:13:46;;;;;;;4.95;3.50;;;24.50;43.90;;;;;;5000885;28;21526;-45
2022/07/23 11:16:16;;;;;;;6.47;3.63;;;24.60;45.00;;;;;;5001364;28;20477;-46
2022/07/23 11:19:04;;;;;;;5.40;4.25;;;24.60;45.50;;;;;;5001609;28;20522;-46
2022/07/23 11:21:45;;;;;;;9.20;4.03;;;24.70;44.00;;;;;;5002818;28;20413;-46
2022/07/23 11:24:14;;;;;;;8.05;3.92;;;24.70;42.80;;;;;;5000998;28;20054;-45
2022/07/23 11:26:59;;;;;;;5.45;3.33;;;24.70;42.80;;;;;;5000732;28;20180;-50
2022/07/23 11:29:45;;;;;;;5.75;3.35;;;24.70;43.70;;;;;;4997720;28;20069;-47
2022/07/23 11:32:33;;;;;;;5.57;3.55;;;24.80;43.30;;;;;;5001352;28;20490;-46
2022/07/23 11:35:00;;;;;;;7.90;3.70;;;24.90;44.30;;;;;;5002356;28;20046;-47
2022/07/23 11:37:35;;;;;;;10.15;3.58;;;24.90;42.60;;;;;;5000422;28;20053;-51
2022/07/23 11:40:07;;;;;;;7.72;3.28;;;25.00;42.50;;;;;;5001726;28;20256;-45
2022/07/23 11:42:38;;;;;;;7.57;3.92;;;25.00;42.20;;;;;;4998682;28;20050;-48
2022/07/23 11:45:08;;;;;;;11.13;4.88;;;25.00;41.80;;;;;;5002597;28;20490;-47
2022/07/23 11:47:36;;;;;;;8.15;4.63;;;25.10;41.90;;;;;;4997807;28;20053;-46
2022/07/23 11:50:06;;;;;;;7.28;5.00;;;25.20;42.50;;;;;;5002522;28;20065;-44
2022/07/23 11:52:34;;;;;;;5.43;3.22;;;25.20;42.80;;;;;;5002136;28;20061;-47
2022/07/23 11:55:04;;;;;;;6.22;4.32;;;25.30;43.60;;;;;;5001985;28;20426;-46
2022/07/23 11:57:33;;;;;;;4.65;3.65;;;25.30;42.90;;;;;;4997341;28;20070;-52
2022/07/23 12:00:09;;;;;;;6.90;4.05;;;25.40;43.10;;;;;;5002165;28;20057;-50
2022/07/23 12:02:36;;;;;;;6.50;3.85;;;25.40;42.90;;;;;;5002377;28;20053;-48
2022/07/23 12:05:04;;;;;;;7.25;4.03;;;25.40;43.00;;;;;;5002455;28;20057;-45
2022/07/23 12:07:34;;;;;;;5.90;3.75;;;25.40;43.00;;;;;;4997093;28;20133;-59
2022/07/23 12:10:04;;;;;;;6.40;3.90;;;25.50;43.70;;;;;;5004335;28;20057;-44
2022/07/23 12:12:37;;;;;;;16.10;4.63;;;25.50;43.20;;;;;;5005032;28;20061;-46
2022/07/23 12:15:08;;;;;;;10.30;4.30;;;25.60;43.40;;;;;;5006139;28;20054;-46
2022/07/23 12:17:37;;;;;;;7.43;4.38;;;25.60;42.80;;;;;;5003307;28;20058;-45
2022/07/23 12:20:07;;;;;;;5.63;4.15;;;25.70;42.20;;;;;;5005970;28;20053;-51
2022/07/23 12:22:37;;;;;;;6.43;4.05;;;25.70;42.20;;;;;;5003946;28;20409;-46
2022/07/23 12:25:07;;;;;;;7.80;5.18;;;25.70;41.90;;;;;;5004895;28;20053;-46
2022/07/23 12:27:35;;;;;;;12.40;6.22;;;25.70;42.00;;;;;;5000789;28;20057;-49
2022/07/23 12:30:25;;;;;;;9.60;5.88;;;25.80;41.70;;;;;;5003999;28;20057;-47
2022/07/23 12:32:55;;;;;;;8.25;5.22;;;25.80;42.10;;;;;;5005483;28;20490;-48
2022/07/23 12:35:30;;;;;;;7.93;4.70;;;25.90;42.20;;;;;;5004765;28;20050;-47
2022/07/23 12:38:02;;;;;;;4.85;4.10;;;25.90;42.30;;;;;;5005328;28;20060;-45
2022/07/23 12:40:32;;;;;;;6.85;4.10;;;26.00;42.60;;;;;;5004258;28;20058;-46
2022/07/23 12:43:01;;;;;;;6.47;3.80;;;26.00;42.60;;;;;;5002632;28;20069;-46